SBSP Airport Information

Runway Information
Runway 17L Length 4708 ft width 148 ft
Elevation 0 ft Threshold 0 ft Heading 0
Runway 35R Length 4708 ft Width 148 ft
Elevation 0 ft Threshold 0 ft Heading 0
Runway 17R Length 6365 ft width 148 ft
Elevation 0 ft Threshold 0 ft Heading 0
Runway 35L Length 6365 ft Width 148 ft
Elevation 0 ft Threshold 0 ft Heading 0
Airport Frequencies
Type APP Name SAO PAULO Frequency 119.8 MHZ
Type ATIS Name ATIS Frequency 127.65 MHZ
Type CLD Name CLNC DEL Frequency 120.6 MHZ
Type GND Name GND Frequency 121.9 MHZ
Type TWR Name SAO PAULO Frequency 127.15 MHZ
Airport Navaids
Type VOR-DME Name Congonhas Frequency 116900 KHZ
Type NDB Name Diadema Frequency 200 KHZ
Type NDB Name Mada Frequency 290 KHZ
Type NDB Name Metro Frequency 330 KHZ
Type NDB Name Sao Paulo Frequency 250 KHZ
Airport Weather Information & NOTAM
ADDS - METARS form results

(0212 UTC 15 August 2020)
Data provider http://aviationweather.gov/metar/data/
 
METAR text: SBSP 150206Z 04004KT 010V070 6000 NSC 23/15 Q1015
Conditions at: SBSP (SAO PAULO/CONGON, BR) observed 0206 UTC 15 August 2020
Temperature: 23.0°C (73°F)
Dewpoint: 15.0°C (59°F) [RH = 61%]
Pressure (altimeter): 29.97 inches Hg (1015.0 mb)
Winds: from the NE (40 degrees) at 5 MPH (4 knots; 2.1 m/s)
Visibility: 4 miles ( 6 km)
Ceiling: at least 12,000 feet AGL
Clouds: sky clear below 12,000 feet AGL
Weather: no significant weather observed at this time

METAR text: SBSP 150200Z 03004KT CAVOK 23/15 Q1015
Conditions at: SBSP (SAO PAULO/CONGON, BR) observed 0200 UTC 15 August 2020
Temperature: 23.0°C (73°F)
Dewpoint: 15.0°C (59°F) [RH = 61%]
Pressure (altimeter): 29.97 inches Hg (1015.0 mb)
Winds: from the NNE (30 degrees) at 5 MPH (4 knots; 2.1 m/s)
Visibility: 6 or more miles (10+ km)
Ceiling: ceiling and visibility are OK
Clouds: unknown
Weather: no significant weather observed at this time

Forecast for: SBSP (SAO PAULO/CONGON, BR)
Text: TAF SBSP 150202Z 1506/1518 03005KT CAVOK TN20/1509Z TX29/1517Z
Forecast period: 0600 to 1200 UTC 15 August 2020
Forecast type: FROM: standard forecast or significant change
Winds: from the NNE (30 degrees) at 6 MPH (5 knots; 2.6 m/s)
Visibility: 6 or more miles (10+ km)
Ceiling: unknown
Clouds: missing
Weather: no significant weather forecast for this period
Text: BECMG 1512/1514 33010KT RMK PGF
Forecast period: 1200 to 1800 UTC 15 August 2020
Forecast type: BECOMING: Conditions expected to become as follows by 1400 UTC 15 August 2020
Winds: from the NNW (330 degrees) at 12 MPH (10 knots; 5.1 m/s)
Visibility: 6 or more miles (10+ km)
Ceiling: unknown
Clouds: missing
Weather: no significant weather forecast for this period